sensor_id;sensor_type;location;lat;lon;timestamp;P1;durP1;ratioP1;P2;durP2;ratioP2
58366;SDS011;57745;42.524;12.052;2023-09-08T00:00:09;4.00;;;3.60;;
58366;SDS011;57745;42.524;12.052;2023-09-08T00:02:35;4.65;;;3.50;;
58366;SDS011;57745;42.524;12.052;2023-09-08T00:05:00;4.38;;;3.65;;
58366;SDS011;57745;42.524;12.052;2023-09-08T00:07:26;5.05;;;3.58;;
58366;SDS011;57745;42.524;12.052;2023-09-08T00:09:51;4.53;;;3.90;;
58366;SDS011;57745;42.524;12.052;2023-09-08T00:12:17;4.70;;;3.95;;
58366;SDS011;57745;42.524;12.052;2023-09-08T00:14:42;5.10;;;3.70;;
58366;SDS011;57745;42.524;12.052;2023-09-08T00:17:08;5.47;;;3.75;;
58366;SDS011;57745;42.524;12.052;2023-09-08T00:19:33;5.97;;;3.90;;
58366;SDS011;57745;42.524;12.052;2023-09-08T00:21:59;7.85;;;4.30;;
58366;SDS011;57745;42.524;12.052;2023-09-08T00:24:25;5.38;;;3.70;;
58366;SDS011;57745;42.524;12.052;2023-09-08T00:26:51;4.50;;;3.65;;
58366;SDS011;57745;42.524;12.052;2023-09-08T00:29:16;4.93;;;3.80;;
58366;SDS011;57745;42.524;12.052;2023-09-08T00:31:42;4.18;;;3.78;;
58366;SDS011;57745;42.524;12.052;2023-09-08T00:34:07;4.40;;;4.03;;
58366;SDS011;57745;42.524;12.052;2023-09-08T00:36:33;6.18;;;4.18;;
58366;SDS011;57745;42.524;12.052;2023-09-08T00:38:58;5.30;;;3.75;;
58366;SDS011;57745;42.524;12.052;2023-09-08T00:41:24;5.65;;;3.95;;
58366;SDS011;57745;42.524;12.052;2023-09-08T00:43:49;5.10;;;4.22;;
58366;SDS011;57745;42.524;12.052;2023-09-08T00:46:15;4.63;;;4.10;;
58366;SDS011;57745;42.524;12.052;2023-09-08T00:48:41;6.80;;;4.30;;
58366;SDS011;57745;42.524;12.052;2023-09-08T00:51:07;4.57;;;4.13;;
58366;SDS011;57745;42.524;12.052;2023-09-08T00:53:35;4.75;;;4.20;;
58366;SDS011;57745;42.524;12.052;2023-09-08T00:56:01;4.72;;;4.28;;
58366;SDS011;57745;42.524;12.052;2023-09-08T00:58:27;6.30;;;4.43;;
58366;SDS011;57745;42.524;12.052;2023-09-08T01:00:53;5.53;;;4.05;;
58366;SDS011;57745;42.524;12.052;2023-09-08T01:03:19;4.38;;;3.97;;
58366;SDS011;57745;42.524;12.052;2023-09-08T01:05:45;6.07;;;4.45;;
58366;SDS011;57745;42.524;12.052;2023-09-08T01:08:11;5.80;;;4.22;;
58366;SDS011;57745;42.524;12.052;2023-09-08T01:10:38;6.15;;;4.28;;
58366;SDS011;57745;42.524;12.052;2023-09-08T01:13:06;5.60;;;4.28;;
58366;SDS011;57745;42.524;12.052;2023-09-08T01:15:31;6.28;;;4.70;;
58366;SDS011;57745;42.524;12.052;2023-09-08T01:17:57;7.10;;;4.05;;
58366;SDS011;57745;42.524;12.052;2023-09-08T01:20:23;4.72;;;4.20;;
58366;SDS011;57745;42.524;12.052;2023-09-08T01:23:01;4.88;;;4.47;;
58366;SDS011;57745;42.524;12.052;2023-09-08T01:25:46;6.07;;;4.30;;
58366;SDS011;57745;42.524;12.052;2023-09-08T01:28:17;5.18;;;4.57;;
58366;SDS011;57745;42.524;12.052;2023-09-08T01:30:45;4.53;;;4.13;;
58366;SDS011;57745;42.524;12.052;2023-09-08T01:33:11;5.03;;;4.45;;
58366;SDS011;57745;42.524;12.052;2023-09-08T01:35:36;4.90;;;4.40;;
58366;SDS011;57745;42.524;12.052;2023-09-08T01:38:02;5.53;;;4.20;;
58366;SDS011;57745;42.524;12.052;2023-09-08T01:40:27;7.88;;;4.57;;
58366;SDS011;57745;42.524;12.052;2023-09-08T01:42:53;5.63;;;4.57;;
58366;SDS011;57745;42.524;12.052;2023-09-08T01:45:18;6.00;;;4.53;;
58366;SDS011;57745;42.524;12.052;2023-09-08T01:47:44;5.82;;;4.50;;
58366;SDS011;57745;42.524;12.052;2023-09-08T01:50:09;5.47;;;4.30;;
58366;SDS011;57745;42.524;12.052;2023-09-08T01:52:35;5.15;;;4.40;;
58366;SDS011;57745;42.524;12.052;2023-09-08T01:55:00;5.78;;;4.60;;
58366;SDS011;57745;42.524;12.052;2023-09-08T01:57:26;5.82;;;4.53;;
58366;SDS011;57745;42.524;12.052;2023-09-08T01:59:51;6.07;;;4.78;;
58366;SDS011;57745;42.524;12.052;2023-09-08T02:02:17;6.40;;;4.80;;
58366;SDS011;57745;42.524;12.052;2023-09-08T02:04:43;4.78;;;4.28;;
58366;SDS011;57745;42.524;12.052;2023-09-08T02:07:08;5.82;;;4.28;;
58366;SDS011;57745;42.524;12.052;2023-09-08T02:09:34;5.57;;;4.97;;
58366;SDS011;57745;42.524;12.052;2023-09-08T02:12:01;6.25;;;4.60;;
58366;SDS011;57745;42.524;12.052;2023-09-08T02:14:27;6.03;;;4.68;;
58366;SDS011;57745;42.524;12.052;2023-09-08T02:16:53;8.95;;;4.53;;
58366;SDS011;57745;42.524;12.052;2023-09-08T02:19:19;5.07;;;4.50;;
58366;SDS011;57745;42.524;12.052;2023-09-08T02:21:45;5.43;;;4.20;;
58366;SDS011;57745;42.524;12.052;2023-09-08T02:24:10;4.25;;;3.85;;
58366;SDS011;57745;42.524;12.052;2023-09-08T02:26:35;6.40;;;4.30;;
58366;SDS011;57745;42.524;12.052;2023-09-08T02:29:01;5.53;;;4.45;;
58366;SDS011;57745;42.524;12.052;2023-09-08T02:31:27;7.03;;;4.63;;
58366;SDS011;57745;42.524;12.052;2023-09-08T02:33:53;7.40;;;4.35;;
58366;SDS011;57745;42.524;12.052;2023-09-08T02:36:18;5.15;;;4.18;;
58366;SDS011;57745;42.524;12.052;2023-09-08T02:38:50;4.65;;;4.07;;
58366;SDS011;57745;42.524;12.052;2023-09-08T02:41:19;4.40;;;4.00;;
58366;SDS011;57745;42.524;12.052;2023-09-08T02:43:45;5.05;;;4.30;;
58366;SDS011;57745;42.524;12.052;2023-09-08T02:46:11;5.38;;;4.68;;
58366;SDS011;57745;42.524;12.052;2023-09-08T02:48:37;6.90;;;4.65;;
58366;SDS011;57745;42.524;12.052;2023-09-08T02:51:03;7.07;;;4.63;;
58366;SDS011;57745;42.524;12.052;2023-09-08T02:53:28;6.13;;;4.60;;
58366;SDS011;57745;42.524;12.052;2023-09-08T02:55:54;6.18;;;4.80;;
58366;SDS011;57745;42.524;12.052;2023-09-08T02:58:20;5.97;;;4.43;;
58366;SDS011;57745;42.524;12.052;2023-09-08T03:00:46;5.15;;;4.65;;
58366;SDS011;57745;42.524;12.052;2023-09-08T03:03:11;4.90;;;4.50;;
58366;SDS011;57745;42.524;12.052;2023-09-08T03:05:37;4.80;;;4.40;;
58366;SDS011;57745;42.524;12.052;2023-09-08T03:08:03;5.07;;;4.40;;
58366;SDS011;57745;42.524;12.052;2023-09-08T03:10:28;5.43;;;4.43;;
58366;SDS011;57745;42.524;12.052;2023-09-08T03:12:54;5.20;;;4.50;;
58366;SDS011;57745;42.524;12.052;2023-09-08T03:15:20;5.10;;;4.60;;
58366;SDS011;57745;42.524;12.052;2023-09-08T03:17:45;7.55;;;4.40;;
58366;SDS011;57745;42.524;12.052;2023-09-08T03:20:11;7.80;;;4.28;;
58366;SDS011;57745;42.524;12.052;2023-09-08T03:22:38;5.20;;;4.32;;
58366;SDS011;57745;42.524;12.052;2023-09-08T03:25:04;7.95;;;4.93;;
58366;SDS011;57745;42.524;12.052;2023-09-08T03:27:30;5.95;;;4.50;;
58366;SDS011;57745;42.524;12.052;2023-09-08T03:29:55;4.88;;;4.47;;
58366;SDS011;57745;42.524;12.052;2023-09-08T03:32:20;5.10;;;4.60;;
58366;SDS011;57745;42.524;12.052;2023-09-08T03:34:46;4.90;;;4.40;;
58366;SDS011;57745;42.524;12.052;2023-09-08T03:37:11;5.40;;;4.80;;
58366;SDS011;57745;42.524;12.052;2023-09-08T03:39:37;7.18;;;4.90;;
58366;SDS011;57745;42.524;12.052;2023-09-08T03:42:02;6.38;;;4.60;;
58366;SDS011;57745;42.524;12.052;2023-09-08T03:44:28;5.57;;;4.50;;
58366;SDS011;57745;42.524;12.052;2023-09-08T03:46:53;7.65;;;4.43;;
58366;SDS011;57745;42.524;12.052;2023-09-08T03:49:19;8.45;;;4.70;;
58366;SDS011;57745;42.524;12.052;2023-09-08T03:51:45;4.63;;;4.20;;
58366;SDS011;57745;42.524;12.052;2023-09-08T03:54:10;5.78;;;4.40;;
58366;SDS011;57745;42.524;12.052;2023-09-08T03:56:36;5.90;;;4.35;;
58366;SDS011;57745;42.524;12.052;2023-09-08T03:59:02;6.22;;;4.72;;
58366;SDS011;57745;42.524;12.052;2023-09-08T04:01:27;6.30;;;4.85;;
58366;SDS011;57745;42.524;12.052;2023-09-08T04:03:53;5.43;;;4.80;;
58366;SDS011;57745;42.524;12.052;2023-09-08T04:06:18;5.40;;;4.78;;
58366;SDS011;57745;42.524;12.052;2023-09-08T04:08:43;7.45;;;5.13;;
58366;SDS011;57745;42.524;12.052;2023-09-08T04:11:09;5.80;;;4.65;;
58366;SDS011;57745;42.524;12.052;2023-09-08T04:13:34;7.80;;;4.60;;
58366;SDS011;57745;42.524;12.052;2023-09-08T04:16:00;5.50;;;4.38;;
58366;SDS011;57745;42.524;12.052;2023-09-08T04:18:25;5.57;;;4.50;;
58366;SDS011;57745;42.524;12.052;2023-09-08T04:20:50;6.45;;;5.07;;
58366;SDS011;57745;42.524;12.052;2023-09-08T04:23:16;5.40;;;4.65;;
58366;SDS011;57745;42.524;12.052;2023-09-08T04:25:41;6.32;;;4.57;;
58366;SDS011;57745;42.524;12.052;2023-09-08T04:28:07;4.95;;;4.50;;
58366;SDS011;57745;42.524;12.052;2023-09-08T04:30:32;6.05;;;4.72;;
58366;SDS011;57745;42.524;12.052;2023-09-08T04:32:58;5.28;;;4.50;;
58366;SDS011;57745;42.524;12.052;2023-09-08T04:35:23;4.78;;;4.38;;
58366;SDS011;57745;42.524;12.052;2023-09-08T04:37:49;5.55;;;4.78;;
58366;SDS011;57745;42.524;12.052;2023-09-08T04:40:14;6.63;;;4.68;;
58366;SDS011;57745;42.524;12.052;2023-09-08T04:42:39;5.50;;;4.97;;
58366;SDS011;57745;42.524;12.052;2023-09-08T04:45:05;8.48;;;4.80;;
58366;SDS011;57745;42.524;12.052;2023-09-08T04:47:31;10.32;;;4.70;;
58366;SDS011;57745;42.524;12.052;2023-09-08T04:49:56;7.47;;;4.40;;
58366;SDS011;57745;42.524;12.052;2023-09-08T04:52:22;9.02;;;4.85;;
58366;SDS011;57745;42.524;12.052;2023-09-08T04:54:47;6.13;;;4.43;;
58366;SDS011;57745;42.524;12.052;2023-09-08T04:57:13;5.65;;;4.65;;
58366;SDS011;57745;42.524;12.052;2023-09-08T04:59:39;5.82;;;4.50;;
58366;SDS011;57745;42.524;12.052;2023-09-08T05:02:04;6.63;;;4.63;;
58366;SDS011;57745;42.524;12.052;2023-09-08T05:04:30;5.65;;;4.82;;
58366;SDS011;57745;42.524;12.052;2023-09-08T05:06:55;6.38;;;4.43;;
58366;SDS011;57745;42.524;12.052;2023-09-08T05:09:20;7.78;;;4.78;;
58366;SDS011;57745;42.524;12.052;2023-09-08T05:11:46;6.07;;;4.50;;
58366;SDS011;57745;42.524;12.052;2023-09-08T05:14:11;6.25;;;4.32;;
58366;SDS011;57745;42.524;12.052;2023-09-08T05:16:37;5.95;;;4.63;;
58366;SDS011;57745;42.524;12.052;2023-09-08T05:19:11;6.10;;;4.60;;
58366;SDS011;57745;42.524;12.052;2023-09-08T05:21:40;7.68;;;4.35;;
58366;SDS011;57745;42.524;12.052;2023-09-08T05:24:06;7.82;;;4.68;;
58366;SDS011;57745;42.524;12.052;2023-09-08T05:26:33;6.93;;;4.47;;
58366;SDS011;57745;42.524;12.052;2023-09-08T05:29:01;12.80;;;4.75;;
58366;SDS011;57745;42.524;12.052;2023-09-08T05:31:26;5.75;;;4.40;;
58366;SDS011;57745;42.524;12.052;2023-09-08T05:33:52;8.35;;;5.68;;
58366;SDS011;57745;42.524;12.052;2023-09-08T05:36:17;6.18;;;5.13;;
58366;SDS011;57745;42.524;12.052;2023-09-08T05:38:42;5.18;;;4.63;;
58366;SDS011;57745;42.524;12.052;2023-09-08T05:41:08;6.38;;;5.32;;
58366;SDS011;57745;42.524;12.052;2023-09-08T05:43:33;4.93;;;4.43;;
58366;SDS011;57745;42.524;12.052;2023-09-08T05:45:59;10.27;;;5.18;;
58366;SDS011;57745;42.524;12.052;2023-09-08T05:48:24;5.78;;;5.18;;
58366;SDS011;57745;42.524;12.052;2023-09-08T05:50:50;5.47;;;4.97;;
58366;SDS011;57745;42.524;12.052;2023-09-08T05:53:15;7.63;;;4.60;;
58366;SDS011;57745;42.524;12.052;2023-09-08T05:55:40;8.18;;;5.05;;
58366;SDS011;57745;42.524;12.052;2023-09-08T05:58:06;5.28;;;4.57;;
58366;SDS011;57745;42.524;12.052;2023-09-08T06:00:32;6.10;;;4.75;;
58366;SDS011;57745;42.524;12.052;2023-09-08T06:02:58;9.23;;;4.85;;
58366;SDS011;57745;42.524;12.052;2023-09-08T06:05:23;7.18;;;4.82;;
58366;SDS011;57745;42.524;12.052;2023-09-08T06:07:49;8.68;;;4.85;;
58366;SDS011;57745;42.524;12.052;2023-09-08T06:10:14;5.10;;;4.35;;
58366;SDS011;57745;42.524;12.052;2023-09-08T06:12:40;6.63;;;4.97;;
58366;SDS011;57745;42.524;12.052;2023-09-08T06:15:06;7.85;;;4.80;;
58366;SDS011;57745;42.524;12.052;2023-09-08T06:17:32;5.80;;;4.75;;
58366;SDS011;57745;42.524;12.052;2023-09-08T06:19:58;9.25;;;4.85;;
58366;SDS011;57745;42.524;12.052;2023-09-08T06:22:23;5.95;;;4.80;;
58366;SDS011;57745;42.524;12.052;2023-09-08T06:24:49;6.57;;;5.00;;
58366;SDS011;57745;42.524;12.052;2023-09-08T06:27:14;7.72;;;4.75;;
58366;SDS011;57745;42.524;12.052;2023-09-08T06:29:40;7.45;;;4.97;;
58366;SDS011;57745;42.524;12.052;2023-09-08T06:32:08;6.35;;;4.75;;
58366;SDS011;57745;42.524;12.052;2023-09-08T06:34:34;7.75;;;4.97;;
58366;SDS011;57745;42.524;12.052;2023-09-08T06:37:00;6.07;;;5.40;;
58366;SDS011;57745;42.524;12.052;2023-09-08T06:39:26;9.43;;;4.90;;
58366;SDS011;57745;42.524;12.052;2023-09-08T06:41:51;8.00;;;4.45;;
58366;SDS011;57745;42.524;12.052;2023-09-08T06:44:17;7.13;;;4.68;;
58366;SDS011;57745;42.524;12.052;2023-09-08T06:46:42;8.15;;;4.90;;
58366;SDS011;57745;42.524;12.052;2023-09-08T06:49:08;7.07;;;5.47;;
58366;SDS011;57745;42.524;12.052;2023-09-08T06:51:33;7.60;;;4.85;;
58366;SDS011;57745;42.524;12.052;2023-09-08T06:53:59;6.85;;;5.28;;
58366;SDS011;57745;42.524;12.052;2023-09-08T06:56:25;5.25;;;4.75;;
58366;SDS011;57745;42.524;12.052;2023-09-08T06:58:50;5.55;;;4.78;;
58366;SDS011;57745;42.524;12.052;2023-09-08T07:01:16;5.97;;;4.90;;
58366;SDS011;57745;42.524;12.052;2023-09-08T07:03:42;10.07;;;6.05;;
58366;SDS011;57745;42.524;12.052;2023-09-08T07:06:08;5.80;;;5.18;;
58366;SDS011;57745;42.524;12.052;2023-09-08T07:08:33;6.38;;;5.00;;
58366;SDS011;57745;42.524;12.052;2023-09-08T07:10:59;8.13;;;5.18;;
58366;SDS011;57745;42.524;12.052;2023-09-08T07:20:17;6.85;;;4.85;;
58366;SDS011;57745;42.524;12.052;2023-09-08T07:22:42;10.00;;;5.45;;
58366;SDS011;57745;42.524;12.052;2023-09-08T07:25:08;5.22;;;4.57;;
58366;SDS011;57745;42.524;12.052;2023-09-08T07:27:34;5.43;;;4.72;;
58366;SDS011;57745;42.524;12.052;2023-09-08T07:30:00;4.78;;;4.28;;
58366;SDS011;57745;42.524;12.052;2023-09-08T07:32:25;7.32;;;4.75;;
58366;SDS011;57745;42.524;12.052;2023-09-08T07:34:51;5.35;;;4.65;;
58366;SDS011;57745;42.524;12.052;2023-09-08T07:37:23;8.63;;;4.93;;
58366;SDS011;57745;42.524;12.052;2023-09-08T07:39:49;5.35;;;4.82;;
58366;SDS011;57745;42.524;12.052;2023-09-08T07:42:15;5.88;;;4.80;;
58366;SDS011;57745;42.524;12.052;2023-09-08T07:44:41;5.82;;;4.65;;
58366;SDS011;57745;42.524;12.052;2023-09-08T07:47:06;6.28;;;4.93;;
58366;SDS011;57745;42.524;12.052;2023-09-08T07:49:36;6.47;;;4.60;;
58366;SDS011;57745;42.524;12.052;2023-09-08T07:52:01;8.20;;;4.70;;
58366;SDS011;57745;42.524;12.052;2023-09-08T07:54:29;6.25;;;5.15;;
58366;SDS011;57745;42.524;12.052;2023-09-08T07:56:55;5.85;;;4.40;;
58366;SDS011;57745;42.524;12.052;2023-09-08T07:59:21;7.60;;;5.00;;
58366;SDS011;57745;42.524;12.052;2023-09-08T08:01:46;6.25;;;4.47;;
58366;SDS011;57745;42.524;12.052;2023-09-08T08:04:12;7.22;;;5.00;;
58366;SDS011;57745;42.524;12.052;2023-09-08T08:06:37;9.52;;;5.00;;
58366;SDS011;57745;42.524;12.052;2023-09-08T08:09:03;5.28;;;4.65;;
58366;SDS011;57745;42.524;12.052;2023-09-08T08:11:28;5.07;;;4.43;;
58366;SDS011;57745;42.524;12.052;2023-09-08T08:13:54;5.25;;;4.32;;
58366;SDS011;57745;42.524;12.052;2023-09-08T08:16:21;5.90;;;4.80;;
58366;SDS011;57745;42.524;12.052;2023-09-08T08:18:47;6.43;;;4.90;;
58366;SDS011;57745;42.524;12.052;2023-09-08T08:21:13;9.73;;;4.88;;
58366;SDS011;57745;42.524;12.052;2023-09-08T08:23:38;5.78;;;4.50;;
58366;SDS011;57745;42.524;12.052;2023-09-08T08:26:04;5.60;;;4.70;;
58366;SDS011;57745;42.524;12.052;2023-09-08T08:28:29;7.63;;;4.82;;
58366;SDS011;57745;42.524;12.052;2023-09-08T08:30:55;6.35;;;4.70;;
58366;SDS011;57745;42.524;12.052;2023-09-08T08:33:21;5.70;;;4.45;;
58366;SDS011;57745;42.524;12.052;2023-09-08T08:35:50;6.38;;;4.88;;
58366;SDS011;57745;42.524;12.052;2023-09-08T08:38:17;7.95;;;4.70;;
58366;SDS011;57745;42.524;12.052;2023-09-08T08:40:42;6.90;;;5.03;;
58366;SDS011;57745;42.524;12.052;2023-09-08T08:43:08;7.60;;;5.55;;
58366;SDS011;57745;42.524;12.052;2023-09-08T08:45:34;5.43;;;4.75;;
58366;SDS011;57745;42.524;12.052;2023-09-08T08:48:01;6.78;;;5.30;;
58366;SDS011;57745;42.524;12.052;2023-09-08T08:50:27;9.05;;;4.90;;
58366;SDS011;57745;42.524;12.052;2023-09-08T08:52:54;9.10;;;4.88;;
58366;SDS011;57745;42.524;12.052;2023-09-08T08:55:19;6.63;;;4.82;;
58366;SDS011;57745;42.524;12.052;2023-09-08T08:57:45;5.40;;;4.55;;
58366;SDS011;57745;42.524;12.052;2023-09-08T09:00:11;7.78;;;4.95;;
58366;SDS011;57745;42.524;12.052;2023-09-08T09:02:42;6.65;;;4.55;;
58366;SDS011;57745;42.524;12.052;2023-09-08T09:05:11;5.75;;;4.70;;
58366;SDS011;57745;42.524;12.052;2023-09-08T09:07:38;5.65;;;4.70;;
58366;SDS011;57745;42.524;12.052;2023-09-08T09:10:05;6.32;;;5.05;;
58366;SDS011;57745;42.524;12.052;2023-09-08T09:12:32;5.55;;;5.05;;
58366;SDS011;57745;42.524;12.052;2023-09-08T09:14:59;5.97;;;4.80;;
58366;SDS011;57745;42.524;12.052;2023-09-08T09:17:25;6.13;;;4.95;;
58366;SDS011;57745;42.524;12.052;2023-09-08T09:19:51;10.43;;;4.85;;
58366;SDS011;57745;42.524;12.052;2023-09-08T09:22:46;6.13;;;5.30;;
58366;SDS011;57745;42.524;12.052;2023-09-08T09:25:25;8.52;;;5.15;;
58366;SDS011;57745;42.524;12.052;2023-09-08T09:27:55;8.32;;;5.53;;
58366;SDS011;57745;42.524;12.052;2023-09-08T09:30:25;7.90;;;5.22;;
58366;SDS011;57745;42.524;12.052;2023-09-08T09:32:58;7.55;;;4.80;;
58366;SDS011;57745;42.524;12.052;2023-09-08T09:35:40;12.27;;;5.07;;
58366;SDS011;57745;42.524;12.052;2023-09-08T09:38:13;6.57;;;5.07;;
58366;SDS011;57745;42.524;12.052;2023-09-08T09:40:42;10.88;;;5.95;;
58366;SDS011;57745;42.524;12.052;2023-09-08T09:43:07;7.70;;;4.80;;
58366;SDS011;57745;42.524;12.052;2023-09-08T09:45:35;7.20;;;5.05;;
58366;SDS011;57745;42.524;12.052;2023-09-08T09:48:05;7.53;;;4.57;;
58366;SDS011;57745;42.524;12.052;2023-09-08T09:50:31;7.78;;;5.55;;
58366;SDS011;57745;42.524;12.052;2023-09-08T09:53:01;7.50;;;5.28;;
58366;SDS011;57745;42.524;12.052;2023-09-08T09:55:32;6.17;;;5.10;;
58366;SDS011;57745;42.524;12.052;2023-09-08T09:57:59;7.03;;;5.20;;
58366;SDS011;57745;42.524;12.052;2023-09-08T10:00:27;7.10;;;5.07;;
58366;SDS011;57745;42.524;12.052;2023-09-08T10:02:53;11.05;;;5.03;;
58366;SDS011;57745;42.524;12.052;2023-09-08T10:05:20;6.05;;;4.80;;
58366;SDS011;57745;42.524;12.052;2023-09-08T10:07:47;6.22;;;4.60;;
58366;SDS011;57745;42.524;12.052;2023-09-08T10:10:13;7.60;;;5.13;;
58366;SDS011;57745;42.524;12.052;2023-09-08T10:12:40;5.82;;;4.70;;
58366;SDS011;57745;42.524;12.052;2023-09-08T10:15:10;6.95;;;4.80;;
58366;SDS011;57745;42.524;12.052;2023-09-08T10:17:36;7.78;;;5.22;;
58366;SDS011;57745;42.524;12.052;2023-09-08T10:20:02;6.40;;;5.00;;
58366;SDS011;57745;42.524;12.052;2023-09-08T10:22:36;10.55;;;5.82;;
58366;SDS011;57745;42.524;12.052;2023-09-08T10:25:04;6.20;;;5.18;;
58366;SDS011;57745;42.524;12.052;2023-09-08T10:27:31;9.07;;;5.82;;
58366;SDS011;57745;42.524;12.052;2023-09-08T10:29:59;10.55;;;5.40;;
58366;SDS011;57745;42.524;12.052;2023-09-08T10:32:26;11.18;;;5.60;;
58366;SDS011;57745;42.524;12.052;2023-09-08T10:34:53;7.35;;;5.38;;
58366;SDS011;57745;42.524;12.052;2023-09-08T10:39:45;5.85;;;5.35;;
58366;SDS011;57745;42.524;12.052;2023-09-08T10:49:55;6.20;;;5.13;;
58366;SDS011;57745;42.524;12.052;2023-09-08T10:52:22;6.57;;;5.30;;
58366;SDS011;57745;42.524;12.052;2023-09-08T10:54:49;6.85;;;5.43;;
58366;SDS011;57745;42.524;12.052;2023-09-08T10:57:17;6.97;;;5.68;;
58366;SDS011;57745;42.524;12.052;2023-09-08T10:59:52;5.32;;;4.68;;
58366;SDS011;57745;42.524;12.052;2023-09-08T11:04:57;6.15;;;5.53;;
58366;SDS011;57745;42.524;12.052;2023-09-08T11:07:24;6.60;;;4.80;;
58366;SDS011;57745;42.524;12.052;2023-09-08T11:09:50;11.82;;;6.13;;
58366;SDS011;57745;42.524;12.052;2023-09-08T11:12:15;7.22;;;5.40;;
58366;SDS011;57745;42.524;12.052;2023-09-08T11:14:43;7.60;;;5.35;;
58366;SDS011;57745;42.524;12.052;2023-09-08T11:17:08;8.70;;;5.40;;
58366;SDS011;57745;42.524;12.052;2023-09-08T11:22:33;6.57;;;4.80;;
58366;SDS011;57745;42.524;12.052;2023-09-08T11:25:00;5.43;;;4.93;;
58366;SDS011;57745;42.524;12.052;2023-09-08T11:27:29;5.45;;;4.82;;
58366;SDS011;57745;42.524;12.052;2023-09-08T11:29:55;5.50;;;5.00;;
58366;SDS011;57745;42.524;12.052;2023-09-08T11:32:22;6.43;;;5.10;;
58366;SDS011;57745;42.524;12.052;2023-09-08T11:34:47;5.68;;;5.10;;
58366;SDS011;57745;42.524;12.052;2023-09-08T11:37:13;5.95;;;4.90;;
58366;SDS011;57745;42.524;12.052;2023-09-08T11:39:41;7.93;;;5.18;;
58366;SDS011;57745;42.524;12.052;2023-09-08T11:42:11;6.05;;;4.80;;
58366;SDS011;57745;42.524;12.052;2023-09-08T11:44:38;6.03;;;5.03;;
58366;SDS011;57745;42.524;12.052;2023-09-08T11:47:04;5.65;;;5.00;;
58366;SDS011;57745;42.524;12.052;2023-09-08T11:49:39;7.75;;;5.38;;
58366;SDS011;57745;42.524;12.052;2023-09-08T11:52:05;7.18;;;5.03;;
58366;SDS011;57745;42.524;12.052;2023-09-08T11:54:32;5.72;;;4.95;;
58366;SDS011;57745;42.524;12.052;2023-09-08T11:56:59;5.63;;;5.13;;
58366;SDS011;57745;42.524;12.052;2023-09-08T11:59:26;6.07;;;5.20;;
58366;SDS011;57745;42.524;12.052;2023-09-08T12:01:53;7.20;;;5.45;;
58366;SDS011;57745;42.524;12.052;2023-09-08T12:04:21;6.72;;;5.28;;
58366;SDS011;57745;42.524;12.052;2023-09-08T12:06:49;6.38;;;5.20;;
58366;SDS011;57745;42.524;12.052;2023-09-08T12:09:17;9.98;;;4.97;;
58366;SDS011;57745;42.524;12.052;2023-09-08T12:11:42;5.28;;;4.78;;
58366;SDS011;57745;42.524;12.052;2023-09-08T12:14:10;5.95;;;4.85;;
58366;SDS011;57745;42.524;12.052;2023-09-08T12:16:36;6.70;;;5.53;;
58366;SDS011;57745;42.524;12.052;2023-09-08T12:19:02;5.70;;;5.07;;
58366;SDS011;57745;42.524;12.052;2023-09-08T12:21:27;6.93;;;5.22;;
58366;SDS011;57745;42.524;12.052;2023-09-08T12:23:53;7.18;;;5.07;;
58366;SDS011;57745;42.524;12.052;2023-09-08T12:26:20;6.43;;;4.97;;
58366;SDS011;57745;42.524;12.052;2023-09-08T12:28:46;6.57;;;5.07;;
58366;SDS011;57745;42.524;12.052;2023-09-08T12:31:13;5.85;;;5.07;;
58366;SDS011;57745;42.524;12.052;2023-09-08T12:33:40;6.20;;;5.30;;
58366;SDS011;57745;42.524;12.052;2023-09-08T12:36:14;5.80;;;4.72;;
58366;SDS011;57745;42.524;12.052;2023-09-08T12:38:48;6.63;;;4.90;;
58366;SDS011;57745;42.524;12.052;2023-09-08T12:41:15;6.25;;;4.72;;
58366;SDS011;57745;42.524;12.052;2023-09-08T12:43:41;5.93;;;4.78;;
58366;SDS011;57745;42.524;12.052;2023-09-08T12:46:06;5.65;;;4.55;;
58366;SDS011;57745;42.524;12.052;2023-09-08T12:48:32;5.70;;;5.05;;
58366;SDS011;57745;42.524;12.052;2023-09-08T12:50:57;7.15;;;5.10;;
58366;SDS011;57745;42.524;12.052;2023-09-08T12:53:23;6.70;;;4.90;;
58366;SDS011;57745;42.524;12.052;2023-09-08T12:55:49;5.30;;;4.80;;
58366;SDS011;57745;42.524;12.052;2023-09-08T12:58:17;5.32;;;4.82;;
58366;SDS011;57745;42.524;12.052;2023-09-08T13:00:43;6.45;;;5.07;;
58366;SDS011;57745;42.524;12.052;2023-09-08T13:03:09;6.20;;;5.15;;
58366;SDS011;57745;42.524;12.052;2023-09-08T13:05:35;5.65;;;4.70;;
58366;SDS011;57745;42.524;12.052;2023-09-08T13:08:01;6.22;;;5.07;;
58366;SDS011;57745;42.524;12.052;2023-09-08T13:10:27;5.15;;;4.75;;
58366;SDS011;57745;42.524;12.052;2023-09-08T13:12:52;7.50;;;4.93;;
58366;SDS011;57745;42.524;12.052;2023-09-08T13:15:18;5.50;;;4.95;;
58366;SDS011;57745;42.524;12.052;2023-09-08T13:17:43;6.03;;;5.00;;
58366;SDS011;57745;42.524;12.052;2023-09-08T13:20:09;6.28;;;5.10;;
58366;SDS011;57745;42.524;12.052;2023-09-08T13:22:34;8.10;;;5.32;;
58366;SDS011;57745;42.524;12.052;2023-09-08T13:25:00;5.70;;;4.90;;
58366;SDS011;57745;42.524;12.052;2023-09-08T13:27:25;5.20;;;4.70;;
58366;SDS011;57745;42.524;12.052;2023-09-08T13:29:53;7.38;;;5.00;;
58366;SDS011;57745;42.524;12.052;2023-09-08T13:32:19;5.80;;;4.65;;
58366;SDS011;57745;42.524;12.052;2023-09-08T13:34:45;5.72;;;4.70;;
58366;SDS011;57745;42.524;12.052;2023-09-08T13:37:13;6.00;;;5.15;;
58366;SDS011;57745;42.524;12.052;2023-09-08T13:39:38;8.38;;;5.18;;
58366;SDS011;57745;42.524;12.052;2023-09-08T13:42:04;5.75;;;4.72;;
58366;SDS011;57745;42.524;12.052;2023-09-08T13:44:29;6.43;;;4.60;;
58366;SDS011;57745;42.524;12.052;2023-09-08T13:46:55;6.30;;;4.65;;
58366;SDS011;57745;42.524;12.052;2023-09-08T13:49:21;6.57;;;4.97;;
58366;SDS011;57745;42.524;12.052;2023-09-08T13:51:47;4.82;;;4.30;;
58366;SDS011;57745;42.524;12.052;2023-09-08T13:54:14;5.75;;;5.00;;
58366;SDS011;57745;42.524;12.052;2023-09-08T13:56:40;7.00;;;4.85;;
58366;SDS011;57745;42.524;12.052;2023-09-08T13:59:06;5.97;;;4.70;;
58366;SDS011;57745;42.524;12.052;2023-09-08T14:01:33;8.40;;;5.05;;
58366;SDS011;57745;42.524;12.052;2023-09-08T14:03:59;5.88;;;4.65;;
58366;SDS011;57745;42.524;12.052;2023-09-08T14:06:26;7.15;;;5.07;;
58366;SDS011;57745;42.524;12.052;2023-09-08T14:08:52;5.65;;;4.70;;
58366;SDS011;57745;42.524;12.052;2023-09-08T14:11:18;5.32;;;4.55;;
58366;SDS011;57745;42.524;12.052;2023-09-08T14:13:43;6.45;;;4.95;;
58366;SDS011;57745;42.524;12.052;2023-09-08T14:16:09;5.45;;;4.95;;
58366;SDS011;57745;42.524;12.052;2023-09-08T14:18:36;7.55;;;4.68;;
58366;SDS011;57745;42.524;12.052;2023-09-08T14:21:01;7.82;;;5.05;;
58366;SDS011;57745;42.524;12.052;2023-09-08T14:23:27;5.57;;;4.88;;
58366;SDS011;57745;42.524;12.052;2023-09-08T14:25:54;8.88;;;4.60;;
58366;SDS011;57745;42.524;12.052;2023-09-08T14:28:19;7.32;;;5.00;;
58366;SDS011;57745;42.524;12.052;2023-09-08T14:30:46;5.13;;;4.63;;
58366;SDS011;57745;42.524;12.052;2023-09-08T14:33:11;5.57;;;4.82;;
58366;SDS011;57745;42.524;12.052;2023-09-08T14:35:41;11.30;;;4.90;;
58366;SDS011;57745;42.524;12.052;2023-09-08T14:38:08;5.03;;;4.35;;
58366;SDS011;57745;42.524;12.052;2023-09-08T14:40:33;5.80;;;5.25;;
58366;SDS011;57745;42.524;12.052;2023-09-08T14:42:59;6.40;;;4.60;;
58366;SDS011;57745;42.524;12.052;2023-09-08T14:45:24;9.63;;;5.07;;
58366;SDS011;57745;42.524;12.052;2023-09-08T14:47:52;5.47;;;4.97;;
58366;SDS011;57745;42.524;12.052;2023-09-08T14:50:18;8.85;;;5.10;;